Aviation Digital Data Service (ADDS)

Output produced by METARs form (0243 UTC 24 July 2017)
found at http://www.aviationweather.gov/adds/metars/
 
VGEG 240200Z 22012KT 1200 TSRA FEW007 FEW025CB OVC070 25/25 Q1002 NOSIG
TAF VGEG 232300Z 2400/2506 15006KT 4500 -RA/TSRA BKN007 FEW025CB OVC090 
     TEMPO 2400/2412 16015G25KT 1500 +RA/TSRA BKN006 FEW025CB OVC080